createdAt,value
2022-09-12T00:00:30.096Z,312.5
2022-09-12T00:05:30.123Z,312.5
2022-09-12T00:10:30.099Z,312.5
2022-09-12T00:15:30.112Z,312.5
2022-09-12T00:20:30.107Z,310
2022-09-12T00:25:30.105Z,310
2022-09-12T00:30:30.108Z,310
2022-09-12T00:35:30.114Z,310
2022-09-12T00:40:30.100Z,310
2022-09-12T00:45:30.154Z,290
2022-09-12T00:50:30.099Z,310
2022-09-12T00:55:30.105Z,310
2022-09-12T01:00:30.103Z,310
2022-09-12T01:05:30.109Z,317.5
2022-09-12T01:10:30.110Z,302.5
2022-09-12T01:15:30.119Z,302.5
2022-09-12T01:20:30.112Z,305
2022-09-12T01:25:30.098Z,305
2022-09-12T01:30:30.132Z,335
2022-09-12T01:35:30.120Z,340
2022-09-12T01:40:30.116Z,340
2022-09-12T01:45:30.143Z,340
2022-09-12T01:50:30.119Z,340
2022-09-12T01:55:30.116Z,340
2022-09-12T02:00:30.096Z,305
2022-09-12T02:05:30.109Z,337.5
2022-09-12T02:10:32.454Z,330
2022-09-12T02:15:30.108Z,347.5
2022-09-12T02:20:48.209Z,327.5
2022-09-12T02:25:30.121Z,340
2022-09-12T02:30:30.186Z,305
2022-09-12T02:35:30.105Z,310
2022-09-12T02:40:30.104Z,315
2022-09-12T02:45:30.139Z,355
2022-09-12T02:50:30.099Z,12.5
2022-09-12T02:55:30.118Z,25
2022-09-12T03:00:30.112Z,15
2022-09-12T03:05:30.108Z,305
2022-09-12T03:10:30.111Z,307.5
2022-09-12T03:15:30.109Z,315
2022-09-12T03:20:30.100Z,320
2022-09-12T03:25:30.112Z,320
2022-09-12T03:30:30.178Z,330
2022-09-12T03:35:30.104Z,330
2022-09-12T03:40:30.105Z,10
2022-09-12T03:45:30.160Z,10
2022-09-12T03:50:30.109Z,10
2022-09-12T03:55:30.113Z,10
2022-09-12T04:00:30.112Z,7.5
2022-09-12T04:05:30.118Z,352.5
2022-09-12T04:10:30.119Z,305
2022-09-12T04:15:30.116Z,330
2022-09-12T04:20:30.112Z,45
2022-09-12T04:25:30.107Z,45
2022-09-12T04:30:30.191Z,45
2022-09-12T04:35:30.114Z,45
2022-09-12T04:40:30.110Z,115
2022-09-12T04:45:30.153Z,12.5
2022-09-12T04:50:30.122Z,122.5
2022-09-12T04:55:30.118Z,30
2022-09-12T05:00:30.107Z,85
2022-09-12T05:05:30.117Z,102.5
2022-09-12T05:10:30.104Z,35
2022-09-12T05:15:30.104Z,55
2022-09-12T05:20:30.104Z,45
2022-09-12T05:25:30.111Z,45
2022-09-12T05:30:30.218Z,32.5
2022-09-12T05:35:30.117Z,30
2022-09-12T05:40:30.108Z,20
2022-09-12T05:45:30.175Z,20
2022-09-12T05:50:30.114Z,10
2022-09-12T05:55:30.119Z,30
2022-09-12T06:00:33.371Z,30
2022-09-12T06:05:30.099Z,40
2022-09-12T06:10:30.105Z,40
2022-09-12T06:15:30.116Z,65
2022-09-12T06:20:30.109Z,65
2022-09-12T06:25:30.125Z,67.5
2022-09-12T06:30:30.202Z,60
2022-09-12T06:35:30.112Z,65
2022-09-12T06:40:30.121Z,65
2022-09-12T06:45:30.113Z,57.5
2022-09-12T06:50:30.120Z,70
2022-09-12T06:55:30.112Z,57.5
2022-09-12T07:00:30.117Z,72.5
2022-09-12T07:05:30.110Z,65
2022-09-12T07:10:30.103Z,65
2022-09-12T07:15:30.115Z,35
2022-09-12T07:20:30.111Z,70
2022-09-12T07:25:30.114Z,70
2022-09-12T07:30:30.153Z,55
2022-09-12T07:35:30.105Z,50
2022-09-12T07:40:30.096Z,70
2022-09-12T07:45:30.104Z,35
2022-09-12T07:50:30.212Z,40
2022-09-12T07:55:30.109Z,65
2022-09-12T08:00:30.097Z,55
2022-09-12T08:05:30.120Z,27.5
2022-09-12T08:10:30.097Z,75
2022-09-12T08:15:30.175Z,55
2022-09-12T08:20:30.105Z,352.5
2022-09-12T08:25:30.107Z,70
2022-09-12T08:30:30.141Z,85
2022-09-12T08:35:30.100Z,92.5
2022-09-12T08:40:30.108Z,60
2022-09-12T08:45:30.109Z,65
2022-09-12T08:50:30.109Z,120
2022-09-12T08:55:30.114Z,70
2022-09-12T09:00:30.112Z,55
2022-09-12T09:05:30.123Z,57.5
2022-09-12T09:10:30.107Z,2.5
2022-09-12T09:15:30.165Z,90
2022-09-12T09:20:30.095Z,110
2022-09-12T09:25:30.121Z,70
2022-09-12T09:30:30.120Z,107.5
2022-09-12T09:35:33.169Z,110
2022-09-12T09:40:30.117Z,85
2022-09-12T09:45:30.105Z,95
2022-09-12T09:50:30.099Z,70
2022-09-12T09:55:30.110Z,92.5
2022-09-12T10:00:30.120Z,42.5
2022-09-12T10:15:30.691Z,100
2022-09-12T10:20:30.111Z,87.5
2022-09-12T10:25:30.120Z,30
2022-09-12T10:30:30.168Z,45
2022-09-12T10:35:30.116Z,70
2022-09-12T10:40:30.126Z,45
2022-09-12T10:45:30.129Z,92.5
2022-09-12T10:50:30.182Z,100
2022-09-12T10:55:30.132Z,35
2022-09-12T11:00:30.122Z,70
2022-09-12T11:05:30.137Z,65
2022-09-12T11:10:33.132Z,80
2022-09-12T11:15:30.314Z,42.5
2022-09-12T11:20:30.131Z,87.5
2022-09-12T11:25:30.123Z,52.5
2022-09-12T11:30:30.200Z,90
2022-09-12T11:35:30.128Z,90
2022-09-12T11:40:30.204Z,130
2022-09-12T11:45:30.117Z,130
2022-09-12T11:50:30.112Z,130
2022-09-12T11:55:30.115Z,130
2022-09-12T12:00:30.109Z,247.5
2022-09-12T12:05:30.113Z,95
2022-09-12T12:10:30.125Z,345
2022-09-12T12:15:30.205Z,167.5
2022-09-12T12:20:30.110Z,80
2022-09-12T12:25:30.167Z,60
2022-09-12T12:30:30.106Z,32.5
2022-09-12T12:35:30.109Z,92.5
2022-09-12T12:40:30.106Z,72.5
2022-09-12T12:45:30.122Z,85
2022-09-12T12:50:30.112Z,80
2022-09-12T12:55:30.116Z,92.5
2022-09-12T13:00:30.117Z,80
2022-09-12T13:05:30.121Z,122.5
2022-09-12T13:10:30.104Z,102.5
2022-09-12T13:15:30.143Z,80
2022-09-12T13:20:30.214Z,35
2022-09-12T13:25:30.129Z,130
2022-09-12T13:30:30.116Z,110
2022-09-12T13:35:30.133Z,70
2022-09-12T13:40:30.119Z,162.5
2022-09-12T13:45:30.136Z,127.5
2022-09-12T13:50:30.118Z,30
2022-09-12T13:55:30.125Z,60
2022-09-12T14:00:30.115Z,275
2022-09-12T14:05:30.113Z,127.5
2022-09-12T14:10:30.112Z,120
2022-09-12T14:15:30.183Z,97.5
2022-09-12T14:20:30.105Z,70
2022-09-12T14:25:30.108Z,102.5
2022-09-12T14:30:30.102Z,35
2022-09-12T14:35:30.114Z,35
2022-09-12T14:40:30.108Z,185
2022-09-12T14:45:30.114Z,125
2022-09-12T14:50:30.111Z,160
2022-09-12T14:55:30.113Z,162.5
2022-09-12T15:00:30.104Z,32.5
2022-09-12T15:05:30.116Z,102.5
2022-09-12T15:10:30.112Z,47.5
2022-09-12T15:15:30.116Z,70
2022-09-12T15:20:30.113Z,67.5
2022-09-12T15:25:30.118Z,75
2022-09-12T15:30:30.117Z,50
2022-09-12T15:35:30.130Z,72.5
2022-09-12T15:40:30.111Z,67.5
2022-09-12T15:45:30.121Z,52.5
2022-09-12T15:50:30.130Z,20
2022-09-12T15:55:30.119Z,77.5
2022-09-12T16:00:30.126Z,90
2022-09-12T16:05:30.126Z,87.5
2022-09-12T16:10:30.120Z,90
2022-09-12T16:15:30.101Z,75
2022-09-12T16:20:30.113Z,72.5
2022-09-12T16:25:30.117Z,82.5
2022-09-12T16:30:30.116Z,85
2022-09-12T16:35:30.114Z,85
2022-09-12T16:40:30.113Z,85
2022-09-12T16:45:30.111Z,100
2022-09-12T16:50:30.107Z,97.5
2022-09-12T16:55:32.330Z,90
2022-09-12T17:00:30.106Z,90
2022-09-12T17:05:30.105Z,65
2022-09-12T17:10:30.112Z,70
2022-09-12T17:15:30.100Z,65
2022-09-12T17:20:30.110Z,75
2022-09-12T17:25:30.119Z,337.5
2022-09-12T17:30:30.146Z,337.5
2022-09-12T17:35:30.135Z,320
2022-09-12T17:40:48.959Z,315
2022-09-12T17:45:30.130Z,315
2022-09-12T17:50:32.403Z,307.5
2022-09-12T17:55:30.114Z,315
2022-09-12T18:00:30.105Z,320
2022-09-12T18:05:30.107Z,302.5
2022-09-12T18:10:30.109Z,310
2022-09-12T18:15:30.107Z,295
2022-09-12T18:20:30.100Z,287.5
2022-09-12T18:25:30.109Z,297.5
2022-09-12T18:30:30.106Z,305
2022-09-12T18:35:30.114Z,310
2022-09-12T18:40:30.100Z,307.5
2022-09-12T18:45:30.116Z,305
2022-09-12T18:50:30.103Z,310
2022-09-12T18:55:30.114Z,310
2022-09-12T19:00:30.121Z,302.5
2022-09-12T19:05:30.111Z,320
2022-09-12T19:10:30.116Z,307.5
2022-09-12T19:15:30.104Z,307.5
2022-09-12T19:20:30.109Z,320
2022-09-12T19:25:30.118Z,302.5
2022-09-12T19:30:30.114Z,312.5
2022-09-12T19:35:30.115Z,315
2022-09-12T19:40:30.110Z,315
2022-09-12T19:45:30.114Z,315
2022-09-12T19:50:30.110Z,320
2022-09-12T19:55:30.115Z,310
2022-09-12T20:00:30.113Z,315
2022-09-12T20:05:30.124Z,310
2022-09-12T20:10:30.107Z,310
2022-09-12T20:15:30.109Z,312.5
2022-09-12T20:20:30.105Z,325
2022-09-12T20:25:30.105Z,312.5
2022-09-12T20:30:30.105Z,315
2022-09-12T20:35:30.113Z,310
2022-09-12T20:40:30.101Z,310
2022-09-12T20:45:30.105Z,320
2022-09-12T20:50:30.106Z,305
2022-09-12T20:55:30.113Z,310
2022-09-12T21:00:30.101Z,312.5
2022-09-12T21:05:30.104Z,312.5
2022-09-12T21:10:30.105Z,290
2022-09-12T21:15:30.110Z,305
2022-09-12T21:20:30.105Z,312.5
2022-09-12T21:25:30.115Z,310
2022-09-12T21:30:30.108Z,310
2022-09-12T21:35:30.117Z,327.5
2022-09-12T21:40:30.111Z,305
2022-09-12T21:45:30.113Z,305
2022-09-12T21:50:30.107Z,307.5
2022-09-12T21:55:30.113Z,312.5
2022-09-12T22:00:30.106Z,307.5
2022-09-12T22:05:30.109Z,292.5
2022-09-12T22:10:30.104Z,300
2022-09-12T22:15:40.334Z,287.5
2022-09-12T22:20:30.112Z,300
2022-09-12T22:25:30.107Z,305
2022-09-12T22:30:30.126Z,310
2022-09-12T22:35:30.116Z,305
2022-09-12T22:40:30.117Z,310
2022-09-12T22:45:30.106Z,310
2022-09-12T22:50:30.100Z,310
2022-09-12T22:55:30.110Z,300
2022-09-12T23:00:30.191Z,305
2022-09-12T23:05:30.116Z,315
2022-09-12T23:10:30.127Z,307.5
2022-09-12T23:15:30.118Z,315
2022-09-12T23:20:30.102Z,315
2022-09-12T23:25:30.115Z,310
2022-09-12T23:30:30.116Z,310
2022-09-12T23:35:30.120Z,307.5
2022-09-12T23:40:30.118Z,295
2022-09-12T23:45:30.150Z,305
2022-09-12T23:50:30.101Z,295
2022-09-12T23:55:30.115Z,310
